ADDS METAR Data INFO
IDs: Format: Raw Decoded Include TAF

Data at: 0901 UTC 20 Oct 2017

KELD 200853Z AUTO 00000KT 10SM CLR 11/11 A3016 RMK AO2 SLP211 T01060106 55005 $
KELD 200753Z AUTO 00000KT 10SM CLR 11/11 A3016 RMK AO2 SLP210 T01110111 $
KELD 200653Z AUTO 00000KT 10SM CLR 11/11 A3017 RMK AO2 SLP216 T01110111 $
KELD 200627Z AUTO 00000KT 5SM BR CLR 11/11 A3017 RMK AO2 T01110111 $
KELD 200615Z AUTO 00000KT 1 1/2SM BR CLR 11/11 A3017 RMK AO2 T01110111 $
KELD 200612Z AUTO 00000KT 3SM BR CLR 12/12 A3017 RMK AO2 T01170117 $
KELD 200600Z AUTO 00000KT 1 1/2SM BR CLR 11/11 A3017 RMK AO2 VIS 1/2V5 T01110111 $
KELD 200553Z AUTO 00000KT 10SM CLR 12/12 A3017 RMK AO2 SLP214 T01170117 10189 20106 402560067 50000 $
KELD 200453Z AUTO 00000KT 10SM CLR 13/13 A3018 RMK AO2 SLP217 T01280128 $
KELD 200353Z AUTO 00000KT 10SM CLR 12/12 A3017 RMK AO2 SLP216 T01220122 $
KELD 200253Z AUTO 00000KT 10SM CLR 13/13 A3017 RMK AO2 SLP215 T01330133 52006 $
KELD 200153Z AUTO 00000KT 10SM CLR 14/14 A3016 RMK AO2 SLP212 T01440144
KELD 200053Z AUTO 00000KT 10SM CLR 17/15 A3016 RMK AO2 SLP213 T01670150
KELD 192353Z AUTO 00000KT 10SM CLR 18/16 A3015 RMK AO2 SLP210 T01830156 10256 20183 56001
KELD 192253Z AUTO 11004KT 10SM CLR 22/15 A3015 RMK AO2 SLP209 T02220150
KELD 192153Z AUTO 10005KT 10SM CLR 24/14 A3015 RMK AO2 SLP208 T02440144
KELD 192053Z AUTO 10005KT 10SM CLR 25/13 A3016 RMK AO2 SLP210 T02500133 56020
KELD 191953Z AUTO 11007KT 10SM CLR 25/14 A3017 RMK AO2 SLP213 T02500139
KELD 191853Z AUTO 06004KT 10SM CLR 25/14 A3019 RMK AO2 SLP221 T02500139
KELD 191753Z AUTO 10SM CLR 26/14 A3021 RMK AO2 SLP229 T02560144 10256 20067 58011
KELD 191653Z AUTO 19003KT 10SM CLR 24/16 A3024 RMK AO2 SLP237 T02390156
KELD 191553Z AUTO 00000KT 10SM CLR 21/16 A3024 RMK AO2 SLP239 T02060156
KELD 191453Z AUTO 18004KT 10SM CLR 17/14 A3025 RMK AO2 SLP240 T01720139 53015
KELD 191353Z AUTO 00000KT 10SM CLR 13/13 A3024 RMK AO2 SLP238 T01330128
KELD 191253Z AUTO 00000KT 10SM CLR 08/08 A3021 RMK AO2 SLP229 T00830083
KELD 191153Z AUTO 00000KT 10SM CLR 07/07 A3020 RMK AO2 SLP227 T00720072 10094 20067 53012
KELD 191053Z AUTO 00000KT 10SM CLR 07/07 A3019 RMK AO2 SLP221 T00720072 $
KELD 191020Z AUTO 00000KT 10SM CLR 07/07 A3018 RMK AO2 T00720072 $
KELD 191012Z AUTO 00000KT 2 1/2SM BR CLR 08/08 A3018 RMK AO2 T00830083 $
KELD 190953Z AUTO 00000KT 10SM CLR 08/08 A3018 RMK AO2 SLP216 T00830083 $
KELD 190853Z AUTO 00000KT 10SM CLR 09/09 A3017 RMK AO2 SLP213 T00890089 53001 $
KELD 190753Z AUTO 00000KT 10SM CLR 09/09 A3017 RMK AO2 SLP214 T00940094
KELD 190750Z AUTO 00000KT 3SM BR CLR 09/09 A3017 RMK AO2
KELD 190741Z AUTO 00000KT 1 1/2SM BR CLR 09/09 A3016 RMK AO2 T00940094
KELD 190653Z AUTO 00000KT 10SM CLR 09/09 A3016 RMK AO2 SLP211 T00940094
KELD 190553Z AUTO 00000KT 10SM CLR 09/09 A3016 RMK AO2 SLP212 T00890089 10178 20089 402610050 58004
KELD 190453Z AUTO 00000KT 10SM CLR 10/10 A3017 RMK AO2 SLP213 T01000100
KELD 190353Z AUTO 00000KT 10SM CLR 12/12 A3018 RMK AO2 SLP216 T01220117
KELD 190253Z AUTO 00000KT 10SM CLR 11/11 A3018 RMK AO2 SLP216 T01110111 51007
KELD 190153Z AUTO 00000KT 10SM CLR 13/12 A3017 RMK AO2 SLP217 T01280122
KELD 190053Z AUTO 00000KT 10SM CLR 14/13 A3017 RMK AO2 SLP215 T01440133
KELD 182353Z AUTO 00000KT 10SM CLR 18/14 A3016 RMK AO2 SLP210 T01780139 10261 20178 53003
KELD 182253Z AUTO 12004KT 10SM CLR 23/13 A3014 RMK AO2 SLP205 T02330133
KELD 182153Z AUTO 16005KT 10SM CLR 25/13 A3013 RMK AO2 SLP203 T02500128